sensor_id;sensor_type;location;lat;lon;timestamp;P1;durP1;ratioP1;P2;durP2;ratioP2
36303;SDS011;22335;49.800;8.596;2023-07-31T00:02:40;6.40;;;5.77;;
36303;SDS011;22335;49.800;8.596;2023-07-31T00:09:24;6.95;;;5.70;;
36303;SDS011;22335;49.800;8.596;2023-07-31T00:16:09;7.88;;;6.03;;
36303;SDS011;22335;49.800;8.596;2023-07-31T00:22:52;6.72;;;5.65;;
36303;SDS011;22335;49.800;8.596;2023-07-31T00:29:36;6.78;;;6.13;;
36303;SDS011;22335;49.800;8.596;2023-07-31T00:36:21;7.80;;;6.35;;
36303;SDS011;22335;49.800;8.596;2023-07-31T00:43:04;8.38;;;6.80;;
36303;SDS011;22335;49.800;8.596;2023-07-31T00:49:48;7.32;;;5.80;;
36303;SDS011;22335;49.800;8.596;2023-07-31T00:56:34;6.68;;;6.13;;
36303;SDS011;22335;49.800;8.596;2023-07-31T01:03:18;6.80;;;6.20;;
36303;SDS011;22335;49.800;8.596;2023-07-31T01:10:02;6.28;;;5.68;;
36303;SDS011;22335;49.800;8.596;2023-07-31T01:16:52;6.72;;;6.03;;
36303;SDS011;22335;49.800;8.596;2023-07-31T01:23:41;7.20;;;6.20;;
36303;SDS011;22335;49.800;8.596;2023-07-31T01:30:43;6.82;;;6.05;;
36303;SDS011;22335;49.800;8.596;2023-07-31T01:37:30;8.57;;;6.40;;
36303;SDS011;22335;49.800;8.596;2023-07-31T01:44:14;7.40;;;5.80;;
36303;SDS011;22335;49.800;8.596;2023-07-31T01:51:01;7.82;;;6.43;;
36303;SDS011;22335;49.800;8.596;2023-07-31T01:57:44;7.38;;;6.15;;
36303;SDS011;22335;49.800;8.596;2023-07-31T02:04:29;6.25;;;5.65;;
36303;SDS011;22335;49.800;8.596;2023-07-31T02:11:14;6.65;;;6.00;;
36303;SDS011;22335;49.800;8.596;2023-07-31T02:17:58;6.93;;;6.30;;
36303;SDS011;22335;49.800;8.596;2023-07-31T02:24:42;7.60;;;6.18;;
36303;SDS011;22335;49.800;8.596;2023-07-31T02:31:27;7.22;;;6.47;;
36303;SDS011;22335;49.800;8.596;2023-07-31T02:38:10;8.40;;;6.60;;
36303;SDS011;22335;49.800;8.596;2023-07-31T02:44:55;7.65;;;6.63;;
36303;SDS011;22335;49.800;8.596;2023-07-31T03:06:42;6.72;;;6.18;;
36303;SDS011;22335;49.800;8.596;2023-07-31T03:13:25;7.47;;;6.40;;
36303;SDS011;22335;49.800;8.596;2023-07-31T03:20:10;7.55;;;6.38;;
36303;SDS011;22335;49.800;8.596;2023-07-31T03:26:55;8.07;;;6.35;;
36303;SDS011;22335;49.800;8.596;2023-07-31T03:33:40;7.00;;;6.40;;
36303;SDS011;22335;49.800;8.596;2023-07-31T03:40:24;7.40;;;6.72;;
36303;SDS011;22335;49.800;8.596;2023-07-31T03:47:09;8.73;;;6.88;;
36303;SDS011;22335;49.800;8.596;2023-07-31T03:53:52;7.40;;;6.60;;
36303;SDS011;22335;49.800;8.596;2023-07-31T04:00:36;10.15;;;6.53;;
36303;SDS011;22335;49.800;8.596;2023-07-31T04:07:21;8.57;;;6.38;;
36303;SDS011;22335;49.800;8.596;2023-07-31T04:14:04;8.00;;;6.78;;
36303;SDS011;22335;49.800;8.596;2023-07-31T04:20:48;8.23;;;6.40;;
36303;SDS011;22335;49.800;8.596;2023-07-31T04:27:33;7.40;;;6.60;;
36303;SDS011;22335;49.800;8.596;2023-07-31T04:34:17;8.00;;;7.22;;
36303;SDS011;22335;49.800;8.596;2023-07-31T04:41:17;6.85;;;6.15;;
36303;SDS011;22335;49.800;8.596;2023-07-31T04:48:02;7.78;;;6.70;;
36303;SDS011;22335;49.800;8.596;2023-07-31T04:54:46;7.10;;;6.40;;
36303;SDS011;22335;49.800;8.596;2023-07-31T05:01:29;8.25;;;6.43;;
36303;SDS011;22335;49.800;8.596;2023-07-31T05:08:15;7.30;;;6.60;;
36303;SDS011;22335;49.800;8.596;2023-07-31T05:14:59;10.88;;;7.30;;
36303;SDS011;22335;49.800;8.596;2023-07-31T05:21:43;7.85;;;6.93;;
36303;SDS011;22335;49.800;8.596;2023-07-31T05:28:28;7.55;;;6.82;;
36303;SDS011;22335;49.800;8.596;2023-07-31T05:35:12;7.20;;;6.60;;
36303;SDS011;22335;49.800;8.596;2023-07-31T05:41:55;7.93;;;7.10;;
36303;SDS011;22335;49.800;8.596;2023-07-31T05:48:40;7.97;;;7.15;;
36303;SDS011;22335;49.800;8.596;2023-07-31T05:55:23;7.53;;;6.90;;
36303;SDS011;22335;49.800;8.596;2023-07-31T06:02:08;8.25;;;7.13;;
36303;SDS011;22335;49.800;8.596;2023-07-31T06:08:52;8.75;;;7.55;;
36303;SDS011;22335;49.800;8.596;2023-07-31T06:15:37;8.27;;;7.10;;
36303;SDS011;22335;49.800;8.596;2023-07-31T06:22:20;8.23;;;7.20;;
36303;SDS011;22335;49.800;8.596;2023-07-31T06:29:06;7.50;;;6.80;;
36303;SDS011;22335;49.800;8.596;2023-07-31T06:35:50;7.73;;;7.03;;
36303;SDS011;22335;49.800;8.596;2023-07-31T06:42:34;7.80;;;7.10;;
36303;SDS011;22335;49.800;8.596;2023-07-31T06:49:18;9.38;;;7.18;;
36303;SDS011;22335;49.800;8.596;2023-07-31T06:56:02;9.93;;;7.55;;
36303;SDS011;22335;49.800;8.596;2023-07-31T07:02:46;7.07;;;6.47;;
36303;SDS011;22335;49.800;8.596;2023-07-31T07:09:31;8.02;;;7.32;;
36303;SDS011;22335;49.800;8.596;2023-07-31T07:16:14;7.20;;;6.50;;
36303;SDS011;22335;49.800;8.596;2023-07-31T07:22:58;11.75;;;7.65;;
36303;SDS011;22335;49.800;8.596;2023-07-31T07:29:42;9.57;;;6.95;;
36303;SDS011;22335;49.800;8.596;2023-07-31T07:36:27;8.10;;;6.93;;
36303;SDS011;22335;49.800;8.596;2023-07-31T07:43:10;9.02;;;7.03;;
36303;SDS011;22335;49.800;8.596;2023-07-31T07:49:55;8.93;;;7.13;;
36303;SDS011;22335;49.800;8.596;2023-07-31T07:56:39;7.93;;;6.97;;
36303;SDS011;22335;49.800;8.596;2023-07-31T08:03:23;7.82;;;6.93;;
36303;SDS011;22335;49.800;8.596;2023-07-31T08:10:08;9.07;;;7.30;;
36303;SDS011;22335;49.800;8.596;2023-07-31T08:16:51;8.90;;;7.00;;
36303;SDS011;22335;49.800;8.596;2023-07-31T08:23:35;7.53;;;6.70;;
36303;SDS011;22335;49.800;8.596;2023-07-31T08:30:20;9.60;;;6.60;;
36303;SDS011;22335;49.800;8.596;2023-07-31T08:37:04;8.33;;;7.53;;
36303;SDS011;22335;49.800;8.596;2023-07-31T08:43:48;8.13;;;6.97;;
36303;SDS011;22335;49.800;8.596;2023-07-31T08:50:34;9.30;;;6.80;;
36303;SDS011;22335;49.800;8.596;2023-07-31T08:57:18;9.50;;;6.95;;
36303;SDS011;22335;49.800;8.596;2023-07-31T09:04:02;8.85;;;6.60;;
36303;SDS011;22335;49.800;8.596;2023-07-31T09:10:49;8.95;;;7.00;;
36303;SDS011;22335;49.800;8.596;2023-07-31T09:17:33;7.63;;;6.10;;
36303;SDS011;22335;49.800;8.596;2023-07-31T09:31:09;9.35;;;6.60;;
36303;SDS011;22335;49.800;8.596;2023-07-31T09:37:53;8.70;;;6.50;;
36303;SDS011;22335;49.800;8.596;2023-07-31T09:44:40;9.60;;;6.50;;
36303;SDS011;22335;49.800;8.596;2023-07-31T09:51:27;7.60;;;6.80;;
36303;SDS011;22335;49.800;8.596;2023-07-31T09:58:12;7.30;;;6.60;;
36303;SDS011;22335;49.800;8.596;2023-07-31T10:04:56;7.00;;;6.40;;
36303;SDS011;22335;49.800;8.596;2023-07-31T10:11:46;7.68;;;6.90;;
36303;SDS011;22335;49.800;8.596;2023-07-31T10:18:34;8.35;;;6.70;;
36303;SDS011;22335;49.800;8.596;2023-07-31T10:25:19;10.93;;;7.07;;
36303;SDS011;22335;49.800;8.596;2023-07-31T10:32:04;7.10;;;6.40;;
36303;SDS011;22335;49.800;8.596;2023-07-31T10:38:51;8.57;;;7.10;;
36303;SDS011;22335;49.800;8.596;2023-07-31T10:45:35;8.27;;;7.47;;
36303;SDS011;22335;49.800;8.596;2023-07-31T10:52:23;8.35;;;7.32;;
36303;SDS011;22335;49.800;8.596;2023-07-31T10:59:08;7.47;;;6.72;;
36303;SDS011;22335;49.800;8.596;2023-07-31T11:05:59;7.68;;;6.60;;
36303;SDS011;22335;49.800;8.596;2023-07-31T11:12:46;8.30;;;6.72;;
36303;SDS011;22335;49.800;8.596;2023-07-31T11:19:29;7.67;;;6.87;;
36303;SDS011;22335;49.800;8.596;2023-07-31T11:26:13;7.25;;;6.55;;
36303;SDS011;22335;49.800;8.596;2023-07-31T11:32:59;8.70;;;6.25;;
36303;SDS011;22335;49.800;8.596;2023-07-31T11:39:57;9.65;;;6.40;;
36303;SDS011;22335;49.800;8.596;2023-07-31T11:46:41;7.03;;;6.22;;
36303;SDS011;22335;49.800;8.596;2023-07-31T11:53:28;7.05;;;6.20;;
36303;SDS011;22335;49.800;8.596;2023-07-31T12:00:15;7.63;;;6.70;;
36303;SDS011;22335;49.800;8.596;2023-07-31T12:07:00;8.17;;;6.83;;
36303;SDS011;22335;49.800;8.596;2023-07-31T12:13:45;7.60;;;6.80;;
36303;SDS011;22335;49.800;8.596;2023-07-31T12:20:29;8.80;;;6.40;;
36303;SDS011;22335;49.800;8.596;2023-07-31T12:27:13;9.02;;;6.65;;
36303;SDS011;22335;49.800;8.596;2023-07-31T12:34:01;7.35;;;6.57;;
36303;SDS011;22335;49.800;8.596;2023-07-31T12:40:44;7.83;;;7.13;;
36303;SDS011;22335;49.800;8.596;2023-07-31T12:47:28;7.03;;;6.32;;
36303;SDS011;22335;49.800;8.596;2023-07-31T12:54:12;7.75;;;6.75;;
36303;SDS011;22335;49.800;8.596;2023-07-31T13:00:56;8.87;;;6.77;;
36303;SDS011;22335;49.800;8.596;2023-07-31T13:07:40;7.38;;;6.57;;
36303;SDS011;22335;49.800;8.596;2023-07-31T13:14:24;6.82;;;6.18;;
36303;SDS011;22335;49.800;8.596;2023-07-31T13:21:08;9.57;;;6.47;;
36303;SDS011;22335;49.800;8.596;2023-07-31T13:27:51;8.70;;;6.82;;
36303;SDS011;22335;49.800;8.596;2023-07-31T13:34:36;7.30;;;6.60;;
36303;SDS011;22335;49.800;8.596;2023-07-31T13:41:20;7.13;;;6.53;;
36303;SDS011;22335;49.800;8.596;2023-07-31T13:48:03;6.32;;;5.80;;
36303;SDS011;22335;49.800;8.596;2023-07-31T13:54:48;8.27;;;6.28;;
36303;SDS011;22335;49.800;8.596;2023-07-31T14:01:32;7.43;;;6.73;;
36303;SDS011;22335;49.800;8.596;2023-07-31T14:08:15;6.43;;;5.63;;
36303;SDS011;22335;49.800;8.596;2023-07-31T14:15:00;6.88;;;6.22;;
36303;SDS011;22335;49.800;8.596;2023-07-31T14:21:44;6.95;;;6.13;;
36303;SDS011;22335;49.800;8.596;2023-07-31T14:28:31;8.40;;;6.32;;
36303;SDS011;22335;49.800;8.596;2023-07-31T14:35:16;7.88;;;5.88;;
36303;SDS011;22335;49.800;8.596;2023-07-31T14:42:00;7.90;;;6.03;;
36303;SDS011;22335;49.800;8.596;2023-07-31T14:48:43;8.25;;;5.63;;
36303;SDS011;22335;49.800;8.596;2023-07-31T14:55:28;7.13;;;6.18;;
36303;SDS011;22335;49.800;8.596;2023-07-31T15:02:12;8.33;;;6.73;;
36303;SDS011;22335;49.800;8.596;2023-07-31T15:08:55;9.35;;;6.10;;
36303;SDS011;22335;49.800;8.596;2023-07-31T15:15:40;9.70;;;6.38;;
36303;SDS011;22335;49.800;8.596;2023-07-31T15:22:23;7.20;;;6.23;;
36303;SDS011;22335;49.800;8.596;2023-07-31T15:29:07;6.65;;;5.80;;
36303;SDS011;22335;49.800;8.596;2023-07-31T15:35:54;9.57;;;6.25;;
36303;SDS011;22335;49.800;8.596;2023-07-31T15:49:23;5.60;;;5.20;;
36303;SDS011;22335;49.800;8.596;2023-07-31T15:56:07;6.95;;;5.80;;
36303;SDS011;22335;49.800;8.596;2023-07-31T16:02:51;6.53;;;5.83;;
36303;SDS011;22335;49.800;8.596;2023-07-31T16:09:34;6.65;;;5.60;;
36303;SDS011;22335;49.800;8.596;2023-07-31T16:16:19;6.25;;;5.40;;
36303;SDS011;22335;49.800;8.596;2023-07-31T16:23:03;6.03;;;5.40;;
36303;SDS011;22335;49.800;8.596;2023-07-31T16:29:48;7.03;;;6.32;;
36303;SDS011;22335;49.800;8.596;2023-07-31T16:36:32;6.97;;;6.25;;
36303;SDS011;22335;49.800;8.596;2023-07-31T16:43:16;6.70;;;6.10;;
36303;SDS011;22335;49.800;8.596;2023-07-31T16:50:00;7.13;;;6.53;;
36303;SDS011;22335;49.800;8.596;2023-07-31T16:56:45;7.68;;;6.78;;
36303;SDS011;22335;49.800;8.596;2023-07-31T17:03:37;8.23;;;7.38;;
36303;SDS011;22335;49.800;8.596;2023-07-31T17:10:21;8.18;;;6.53;;
36303;SDS011;22335;49.800;8.596;2023-07-31T17:17:06;6.90;;;6.25;;
36303;SDS011;22335;49.800;8.596;2023-07-31T17:23:50;7.63;;;6.80;;
36303;SDS011;22335;49.800;8.596;2023-07-31T17:30:37;7.07;;;6.45;;
36303;SDS011;22335;49.800;8.596;2023-07-31T17:37:21;7.80;;;7.10;;
36303;SDS011;22335;49.800;8.596;2023-07-31T17:44:05;8.87;;;7.27;;
36303;SDS011;22335;49.800;8.596;2023-07-31T17:50:49;10.10;;;7.05;;
36303;SDS011;22335;49.800;8.596;2023-07-31T17:57:35;9.77;;;7.47;;
36303;SDS011;22335;49.800;8.596;2023-07-31T18:04:18;7.63;;;6.93;;
36303;SDS011;22335;49.800;8.596;2023-07-31T18:11:02;7.55;;;6.80;;
36303;SDS011;22335;49.800;8.596;2023-07-31T18:17:47;94.30;;;14.35;;
36303;SDS011;22335;49.800;8.596;2023-07-31T18:24:31;11.63;;;7.67;;
36303;SDS011;22335;49.800;8.596;2023-07-31T18:31:14;10.52;;;7.78;;
36303;SDS011;22335;49.800;8.596;2023-07-31T18:37:59;10.55;;;7.70;;
36303;SDS011;22335;49.800;8.596;2023-07-31T18:44:42;9.93;;;7.57;;
36303;SDS011;22335;49.800;8.596;2023-07-31T18:51:26;8.40;;;7.60;;
36303;SDS011;22335;49.800;8.596;2023-07-31T18:58:11;7.63;;;6.90;;
36303;SDS011;22335;49.800;8.596;2023-07-31T19:04:54;10.50;;;6.97;;
36303;SDS011;22335;49.800;8.596;2023-07-31T19:11:38;7.88;;;7.05;;
36303;SDS011;22335;49.800;8.596;2023-07-31T19:18:24;7.43;;;6.80;;
36303;SDS011;22335;49.800;8.596;2023-07-31T19:25:08;7.23;;;6.53;;
36303;SDS011;22335;49.800;8.596;2023-07-31T19:31:51;8.48;;;6.55;;
36303;SDS011;22335;49.800;8.596;2023-07-31T19:38:36;8.07;;;6.47;;
36303;SDS011;22335;49.800;8.596;2023-07-31T19:45:19;7.88;;;6.57;;
36303;SDS011;22335;49.800;8.596;2023-07-31T19:52:03;7.15;;;6.50;;
36303;SDS011;22335;49.800;8.596;2023-07-31T19:58:48;10.02;;;7.53;;
36303;SDS011;22335;49.800;8.596;2023-07-31T20:05:32;7.30;;;6.70;;
36303;SDS011;22335;49.800;8.596;2023-07-31T20:19:03;7.80;;;7.00;;
36303;SDS011;22335;49.800;8.596;2023-07-31T20:25:46;7.70;;;7.03;;
36303;SDS011;22335;49.800;8.596;2023-07-31T20:32:31;7.68;;;6.95;;
36303;SDS011;22335;49.800;8.596;2023-07-31T20:39:16;10.18;;;7.57;;
36303;SDS011;22335;49.800;8.596;2023-07-31T20:45:59;10.77;;;8.93;;
36303;SDS011;22335;49.800;8.596;2023-07-31T20:52:43;9.40;;;8.50;;
36303;SDS011;22335;49.800;8.596;2023-07-31T20:59:27;11.25;;;8.68;;
36303;SDS011;22335;49.800;8.596;2023-07-31T21:06:11;9.13;;;8.18;;
36303;SDS011;22335;49.800;8.596;2023-07-31T21:12:57;9.20;;;8.30;;
36303;SDS011;22335;49.800;8.596;2023-07-31T21:19:43;9.45;;;8.50;;
36303;SDS011;22335;49.800;8.596;2023-07-31T21:26:27;10.23;;;8.63;;
36303;SDS011;22335;49.800;8.596;2023-07-31T21:33:10;9.40;;;8.32;;
36303;SDS011;22335;49.800;8.596;2023-07-31T21:39:55;9.30;;;8.40;;
36303;SDS011;22335;49.800;8.596;2023-07-31T21:46:39;9.50;;;8.50;;
36303;SDS011;22335;49.800;8.596;2023-07-31T21:53:22;9.45;;;8.45;;
36303;SDS011;22335;49.800;8.596;2023-07-31T22:00:07;8.30;;;7.45;;
36303;SDS011;22335;49.800;8.596;2023-07-31T22:06:53;9.68;;;8.50;;
36303;SDS011;22335;49.800;8.596;2023-07-31T22:13:36;8.93;;;7.90;;
36303;SDS011;22335;49.800;8.596;2023-07-31T22:20:21;9.43;;;8.50;;
36303;SDS011;22335;49.800;8.596;2023-07-31T22:27:04;9.27;;;8.48;;
36303;SDS011;22335;49.800;8.596;2023-07-31T22:33:48;8.93;;;8.13;;
36303;SDS011;22335;49.800;8.596;2023-07-31T22:40:34;9.43;;;8.52;;
36303;SDS011;22335;49.800;8.596;2023-07-31T22:47:18;11.43;;;8.38;;
36303;SDS011;22335;49.800;8.596;2023-07-31T22:54:01;11.98;;;8.25;;
36303;SDS011;22335;49.800;8.596;2023-07-31T23:00:46;10.48;;;8.15;;
36303;SDS011;22335;49.800;8.596;2023-07-31T23:07:29;10.00;;;9.20;;
36303;SDS011;22335;49.800;8.596;2023-07-31T23:14:13;11.50;;;8.75;;
36303;SDS011;22335;49.800;8.596;2023-07-31T23:20:57;9.60;;;8.60;;
36303;SDS011;22335;49.800;8.596;2023-07-31T23:27:41;9.70;;;8.80;;
36303;SDS011;22335;49.800;8.596;2023-07-31T23:34:25;9.18;;;8.38;;
36303;SDS011;22335;49.800;8.596;2023-07-31T23:41:11;9.80;;;8.80;;
36303;SDS011;22335;49.800;8.596;2023-07-31T23:47:54;10.50;;;8.70;;
36303;SDS011;22335;49.800;8.596;2023-07-31T23:54:38;9.90;;;9.00;;
